Rockledge, Pennsylvania
Current Conditions -  °F | °C
As of 7:54 AM on Friday 31 Oct 2014 (Local Time) from KPNE Reporting Station
Clear Clear  
Wind Chill: 36°   Ceiling: Unl
Heat Index: 39°   Visibility: 10mi
Dew Point: 30°   Wind: 5mph
Humidity: 70%   Direction: 340°NNW
Pressure: 30.04"   Gusts: NA
Location:  40.1039°N, 75.1072°W
Report Text: KPNE 311154Z AUTO 34004KT 10SM CLR 04/M01 A3004 RMK AO2 SLP172 T00391011 10050 20028 52003 TSNO $
Loading
Personal Weather Stations






























Interactive Weather Map
Tropical Storm Tracking
New forecast layout! Learn more

10-Day Weather Forecast

Advertisements
Track Severe Weather on mobile